Aérodrome :
LOGIN :

S'inscrire | Disclaimer

   EN    FR    IT 

 










Légende :    VFR   VFR Marginal   IFR   IFR Intensif   IFR Très Intensif
Visi : 
Plafond : 
>= 8 km
>= 3000ft
5 à 8 km
1000 à 3000 ft
1500m à 5 km
500 à 1000 ft
800 à 1500m
200 à 500 ft
< 800m
< 200 ft
Symboles :   Orages  Brouillard  Fortes neiges  Fortes précipitations  Vent > 20 kt
SIGMETs :   Divers  Orages  Givrage  Turbulence  Onde Orograph.  Cendres Volcan.







- Altitude de l'aérodrome : 53 ft
- Code IATA : HAM


EDDH - Hamburg

DERNIER METAR :
  • 231620Z 32006KT 9999 SCT040TCU SCT090 19/13 Q1012 TEMPO SHRA

METARs EXPIRÉS :
  • 231550Z 33006KT 260V010 9999 FEW030TCU 20/13 Q1012 TEMPO SHRA
  • 231520Z VRB06KT 9999 FEW030 20/12 Q1012 NOSIG
  • 231450Z 29011KT 260V320 9999 FEW030 20/12 Q1012 NOSIG
  • 231420Z 30007KT 220V340 9999 FEW025 20/15 Q1012 NOSIG
  • 231350Z 30010KT 9999 SCT030TCU 18/14 Q1012 TEMPO SHRA

TAF TAF EDDH
Valide du 23 à 12h jusqu'au 24 à 18h UTC


231100Z 2312/2418 26009KT 9999 BKN030
TEMPO 2312/2321 4000 SHRA BKN020CB
PROB30
TEMPO 2312/2318 24015G30KT 2500 TSRA
BECMG 2317/2319 19003KT
BECMG 2404/2406 06005KT
Pas de NOTAMs connus pour ce terrain.



MET'MAP, la Météo Aéronautique d'un coup d'oeil ! - Copyright ORBIFLY Décembre 2007 - Disclaimer

ORBIFLY MET'MAP TEAM :

Programmation & Développement : Alexandra Zaïnal
Conception & Développement : Baudouin d'Aumeries
Co-Programmation & Développement : Marc-Olivier Méhu
Soutien technique & logistique : Manuel Goepfert

Contact : metmap@orbifly.com




SOURCES & CREDITS :

   NOAA